sensor_id;sensor_type;location;lat;lon;timestamp;temperature;humidity
53274;DHT22;39163;52.696;6.758;2022-10-16T00:00:29;13.40;99.90
53274;DHT22;39163;52.696;6.758;2022-10-16T00:02:55;13.40;99.90
53274;DHT22;39163;52.696;6.758;2022-10-16T00:05:20;13.30;99.90
53274;DHT22;39163;52.696;6.758;2022-10-16T00:07:46;13.30;99.90
53274;DHT22;39163;52.696;6.758;2022-10-16T00:10:12;13.30;99.90
53274;DHT22;39163;52.696;6.758;2022-10-16T00:12:38;13.30;99.90
53274;DHT22;39163;52.696;6.758;2022-10-16T00:15:04;13.30;99.90
53274;DHT22;39163;52.696;6.758;2022-10-16T00:17:30;13.30;99.90
53274;DHT22;39163;52.696;6.758;2022-10-16T00:19:56;13.30;99.90
53274;DHT22;39163;52.696;6.758;2022-10-16T00:22:22;13.30;99.90
53274;DHT22;39163;52.696;6.758;2022-10-16T00:24:48;13.30;99.90
53274;DHT22;39163;52.696;6.758;2022-10-16T00:27:13;13.20;99.90
53274;DHT22;39163;52.696;6.758;2022-10-16T00:29:39;13.20;99.90
53274;DHT22;39163;52.696;6.758;2022-10-16T00:32:05;13.20;99.90
53274;DHT22;39163;52.696;6.758;2022-10-16T00:34:30;13.20;99.90
53274;DHT22;39163;52.696;6.758;2022-10-16T00:36:56;13.20;99.90
53274;DHT22;39163;52.696;6.758;2022-10-16T00:39:22;13.20;99.90
53274;DHT22;39163;52.696;6.758;2022-10-16T00:41:48;13.20;99.90
53274;DHT22;39163;52.696;6.758;2022-10-16T00:47:40;13.20;99.90
53274;DHT22;39163;52.696;6.758;2022-10-16T00:50:42;13.20;99.90
53274;DHT22;39163;52.696;6.758;2022-10-16T00:53:10;13.20;99.90
53274;DHT22;39163;52.696;6.758;2022-10-16T00:55:37;13.10;99.90
53274;DHT22;39163;52.696;6.758;2022-10-16T00:58:02;13.10;99.90
53274;DHT22;39163;52.696;6.758;2022-10-16T01:00:28;13.10;99.90
53274;DHT22;39163;52.696;6.758;2022-10-16T01:02:56;13.10;99.90
53274;DHT22;39163;52.696;6.758;2022-10-16T01:05:32;13.10;99.90
53274;DHT22;39163;52.696;6.758;2022-10-16T01:08:14;13.10;99.90
53274;DHT22;39163;52.696;6.758;2022-10-16T01:10:57;13.20;99.90
53274;DHT22;39163;52.696;6.758;2022-10-16T01:13:30;13.10;99.90
53274;DHT22;39163;52.696;6.758;2022-10-16T01:16:07;13.10;99.90
53274;DHT22;39163;52.696;6.758;2022-10-16T01:18:39;13.10;99.90
53274;DHT22;39163;52.696;6.758;2022-10-16T01:21:10;13.00;99.90
53274;DHT22;39163;52.696;6.758;2022-10-16T01:26:19;13.00;99.90
53274;DHT22;39163;52.696;6.758;2022-10-16T01:31:18;13.10;99.90
53274;DHT22;39163;52.696;6.758;2022-10-16T01:33:47;13.00;99.90
53274;DHT22;39163;52.696;6.758;2022-10-16T01:36:23;13.00;99.90
53274;DHT22;39163;52.696;6.758;2022-10-16T01:38:52;13.00;99.90
53274;DHT22;39163;52.696;6.758;2022-10-16T01:41:27;12.90;99.90
53274;DHT22;39163;52.696;6.758;2022-10-16T01:44:03;12.90;99.90
53274;DHT22;39163;52.696;6.758;2022-10-16T01:46:32;12.90;99.90
53274;DHT22;39163;52.696;6.758;2022-10-16T01:49:02;12.90;99.90
53274;DHT22;39163;52.696;6.758;2022-10-16T01:51:29;12.90;99.90
53274;DHT22;39163;52.696;6.758;2022-10-16T01:56:31;12.90;99.90
53274;DHT22;39163;52.696;6.758;2022-10-16T01:59:09;13.00;99.90
53274;DHT22;39163;52.696;6.758;2022-10-16T02:01:36;13.00;99.90
53274;DHT22;39163;52.696;6.758;2022-10-16T02:04:09;12.90;99.90
53274;DHT22;39163;52.696;6.758;2022-10-16T02:06:38;13.00;99.90
53274;DHT22;39163;52.696;6.758;2022-10-16T02:09:04;13.00;99.90
53274;DHT22;39163;52.696;6.758;2022-10-16T02:11:29;13.00;99.90
53274;DHT22;39163;52.696;6.758;2022-10-16T02:14:01;13.00;99.90
53274;DHT22;39163;52.696;6.758;2022-10-16T02:16:42;13.00;99.90
53274;DHT22;39163;52.696;6.758;2022-10-16T02:19:09;13.00;99.90
53274;DHT22;39163;52.696;6.758;2022-10-16T02:21:47;13.00;99.90
53274;DHT22;39163;52.696;6.758;2022-10-16T02:27:12;13.00;99.90
53274;DHT22;39163;52.696;6.758;2022-10-16T02:29:47;13.10;99.90
53274;DHT22;39163;52.696;6.758;2022-10-16T02:32:23;13.10;99.90
53274;DHT22;39163;52.696;6.758;2022-10-16T02:34:51;13.10;99.90
53274;DHT22;39163;52.696;6.758;2022-10-16T02:37:18;13.10;99.90
53274;DHT22;39163;52.696;6.758;2022-10-16T02:39:44;13.20;99.90
53274;DHT22;39163;52.696;6.758;2022-10-16T02:42:13;13.20;99.90
53274;DHT22;39163;52.696;6.758;2022-10-16T02:44:39;13.20;99.90
53274;DHT22;39163;52.696;6.758;2022-10-16T02:47:07;13.30;99.90
53274;DHT22;39163;52.696;6.758;2022-10-16T02:49:33;13.20;99.90
53274;DHT22;39163;52.696;6.758;2022-10-16T02:51:58;13.30;99.90
53274;DHT22;39163;52.696;6.758;2022-10-16T02:54:24;13.30;99.90
53274;DHT22;39163;52.696;6.758;2022-10-16T02:56:50;13.30;99.90
53274;DHT22;39163;52.696;6.758;2022-10-16T02:59:16;13.40;99.90
53274;DHT22;39163;52.696;6.758;2022-10-16T03:01:42;13.50;99.90
53274;DHT22;39163;52.696;6.758;2022-10-16T03:04:07;13.40;99.90
53274;DHT22;39163;52.696;6.758;2022-10-16T03:06:34;13.40;99.90
53274;DHT22;39163;52.696;6.758;2022-10-16T03:09:00;13.40;99.90
53274;DHT22;39163;52.696;6.758;2022-10-16T03:11:25;13.50;99.90
53274;DHT22;39163;52.696;6.758;2022-10-16T03:13:52;13.50;99.90
53274;DHT22;39163;52.696;6.758;2022-10-16T03:16:20;13.50;99.90
53274;DHT22;39163;52.696;6.758;2022-10-16T08:11:40;14.20;99.90
